»·PEaware :: ACA206 KLAX-KSAN

ACA206 :: KLAX-KSAN

FLIGHT INFORMATION

Flight Status: Arrived
Operator:
Air Canada
More flights by this operator :: More flights under this callsign
Pilot: Nick L. (7253)
Aircraft: AIRBUS A319
(A319)
More flights by this aircraft type
Origin: KLAX Los Angeles Intl
United States
Destination: KSAN San Diego Intl-Lindbergh
United States
More flights between these airports :: More routes between these airports
Route: +LAXX1 MZB
File this flight plan on PilotEdge
Remarks:
Altitude:
(Current/Filed)
13,000ft
Speed:
(Current/Filed)
350kts
Departed: 07-Jul-19 12:51 PM
Arrived: 07-Jul-19 01:36 PM
Distance/Time
Traveled:
95nm/0:45
Distance/Time
To Go:
Arrived

Flight Plot

Page will automatically refresh every two minutes.

Flight plan parsing failed; only flown route is shown


Map Options




Map Legend


Flown Route
Filed Route
Departure Airport
Arrival Airport
Navaid (VOR, NDB)
Fix

Horizontal Profiles

Position Reports

Time Latitude Longitude Heading Altitude Ground
Speed
07-Jul-19 12:09 33.942179 -118.402671 84 134ft 0kts
07-Jul-19 12:10 33.942179 -118.402671 84 134ft 0kts
07-Jul-19 12:11 33.942179 -118.402671 84 134ft 0kts
07-Jul-19 12:12 33.942179 -118.402671 84 134ft 0kts
07-Jul-19 12:13 33.942179 -118.402671 84 134ft 0kts
07-Jul-19 12:14 33.942179 -118.402671 84 134ft 0kts
07-Jul-19 12:15 33.942179 -118.402671 84 134ft 0kts
07-Jul-19 12:16 33.942179 -118.402671 84 134ft 0kts
07-Jul-19 12:17 33.942179 -118.402671 84 134ft 0kts
07-Jul-19 12:18 33.942179 -118.402671 84 134ft 0kts
07-Jul-19 12:19 33.942179 -118.402671 84 134ft 0kts
07-Jul-19 12:20 33.942179 -118.402671 84 134ft 0kts
07-Jul-19 12:21 33.942179 -118.402671 84 134ft 0kts
07-Jul-19 12:22 33.942179 -118.402671 84 134ft 0kts
07-Jul-19 12:23 33.942179 -118.402671 84 134ft 0kts
07-Jul-19 12:24 33.942179 -118.402671 84 134ft 0kts
07-Jul-19 12:25 33.942179 -118.402671 84 134ft 0kts
07-Jul-19 12:26 33.942179 -118.402671 84 134ft 0kts
07-Jul-19 12:27 33.942179 -118.402671 84 134ft 0kts
07-Jul-19 12:28 33.942179 -118.402671 84 134ft 0kts
07-Jul-19 12:29 33.942179 -118.402671 84 134ft 0kts
07-Jul-19 12:30 33.942179 -118.402671 84 134ft 0kts
07-Jul-19 12:31 33.942179 -118.402671 84 134ft 0kts
07-Jul-19 12:32 33.942179 -118.402671 84 134ft 0kts
07-Jul-19 12:33 33.942179 -118.402671 84 134ft 0kts
07-Jul-19 12:34 33.942132 -118.402833 65 134ft 2kts
07-Jul-19 12:35 33.941992 -118.403330 127 134ft 0kts
07-Jul-19 12:36 33.942095 -118.403364 174 134ft 0kts
07-Jul-19 12:37 33.942095 -118.403364 174 134ft 0kts
07-Jul-19 12:38 33.942095 -118.403364 174 134ft 0kts
07-Jul-19 12:39 33.942095 -118.403364 174 134ft 0kts
07-Jul-19 12:40 33.942095 -118.403364 174 134ft 0kts
07-Jul-19 12:41 33.941992 -118.403350 173 134ft 3kts
07-Jul-19 12:42 33.939801 -118.403003 172 134ft 0kts
07-Jul-19 12:43 33.938643 -118.401285 84 134ft 12kts
07-Jul-19 12:44 33.939185 -118.395896 80 134ft 20kts
07-Jul-19 12:45 33.939931 -118.388650 85 134ft 22kts
07-Jul-19 12:46 33.940673 -118.381362 83 134ft 22kts
07-Jul-19 12:47 33.940670 -118.380576 119 134ft 0kts
07-Jul-19 12:48 33.940193 -118.380159 181 134ft 9kts
07-Jul-19 12:49 33.939760 -118.380936 262 134ft 3kts
07-Jul-19 12:50 33.936119 -118.415826 262 716ft 185kts
07-Jul-19 12:51 33.918678 -118.472617 216 2922ft 213kts
07-Jul-19 12:52 33.850239 -118.470283 171 5310ft 274kts
07-Jul-19 12:53 33.773528 -118.453489 172 8679ft 286kts
07-Jul-19 12:54 33.693117 -118.432952 171 11028ft 324kts
07-Jul-19 12:55 33.597254 -118.409411 171 12821ft 362kts
07-Jul-19 12:56 33.522526 -118.332453 122 12900ft 382kts
07-Jul-19 12:57 33.473053 -118.219197 121 12904ft 383kts
07-Jul-19 12:58 33.424106 -118.105541 116 12902ft 385kts
07-Jul-19 12:59 33.392100 -117.982802 110 12903ft 379kts
07-Jul-19 13:00 33.360384 -117.862528 111 12904ft 379kts
07-Jul-19 13:01 33.328024 -117.741840 111 12904ft 379kts
07-Jul-19 13:02 33.295701 -117.621847 111 12904ft 379kts
07-Jul-19 13:03 33.263264 -117.502024 111 12904ft 379kts
07-Jul-19 13:04 33.208589 -117.403258 162 12897ft 356kts
07-Jul-19 13:05 33.115364 -117.365038 163 12116ft 351kts
07-Jul-19 13:06 33.023564 -117.326231 163 9637ft 350kts
07-Jul-19 13:07 32.937245 -117.289880 163 8996ft 297kts
07-Jul-19 13:08 32.863891 -117.259305 163 7384ft 271kts
07-Jul-19 13:09 32.800888 -117.225917 117 6930ft 241kts
07-Jul-19 13:10 32.790361 -117.147352 98 6925ft 241kts
07-Jul-19 13:11 32.779097 -117.069292 100 6288ft 237kts
07-Jul-19 13:12 32.761536 -116.994760 105 5876ft 234kts
07-Jul-19 13:13 32.715650 -116.954550 196 4806ft 227kts
07-Jul-19 13:15 32.689706 -117.012069 287 3081ft 217kts
07-Jul-19 13:16 32.705715 -117.075275 286 2100ft 178kts
07-Jul-19 13:17 32.717840 -117.125055 286 1096ft 139kts
07-Jul-19 13:18 32.728733 -117.169319 286 208ft 137kts
07-Jul-19 13:19 32.740484 -117.216015 286 2041ft 156kts
07-Jul-19 13:20 32.756155 -117.282893 286 2426ft 257kts
07-Jul-19 13:21 32.775907 -117.365088 286 2426ft 256kts
07-Jul-19 13:22 32.794049 -117.438655 287 4804ft 206kts
07-Jul-19 13:23 32.834224 -117.465287 40 4918ft 223kts
07-Jul-19 13:24 32.836777 -117.391517 102 4922ft 229kts
07-Jul-19 13:25 32.822055 -117.317508 102 4926ft 229kts
07-Jul-19 13:26 32.807458 -117.243963 100 5021ft 238kts
07-Jul-19 13:27 32.795484 -117.169995 99 5923ft 224kts
07-Jul-19 13:28 32.783747 -117.097179 99 5925ft 224kts
07-Jul-19 13:29 32.768792 -117.024484 105 5921ft 223kts
07-Jul-19 13:30 32.743131 -116.959762 150 5008ft 227kts
07-Jul-19 13:31 32.689808 -116.981941 251 3601ft 233kts
07-Jul-19 13:32 32.699784 -117.051376 286 2449ft 201kts
07-Jul-19 13:32 32.711466 -117.098739 286 1646ft 157kts
07-Jul-19 13:34 32.724336 -117.151694 286 583ft 138kts
07-Jul-19 13:34 32.733087 -117.187541 291 26ft 103kts
07-Jul-19 13:35 32.734072 -117.195551 263 26ft 0kts
07-Jul-19 13:37 32.734072 -117.195551 263 26ft 0kts
07-Jul-19 13:38 32.734665 -117.198519 293 26ft 13kts
07-Jul-19 13:38 32.733718 -117.198973 147 26ft 1kts
07-Jul-19 13:39 32.733686 -117.198948 147 26ft 0kts

Navigation Log

Ident Type
Flight plan parsing failed, navigation log unavailable